KMBL/MBL METAR and TAF weather

Enter ICAO airport designator
Station Type Date Time Source
KMBL METAR 2022/06/28 07:56 UTC NOAA

KMBL 280756Z AUTO 06004KT 10SM CLR 07/06 A3018 RMK AO2 SLP223 T00670061


Station Type Date Time Source
KMBL Decoded METAR 2022/06/28 07:56 UTC NOAA

Manistee, Manistee County-Blacker Airport, MI, United States (KMBL) 44-16N 086-15W
Jun 28, 2022 - 03:56 AM EDT / 2022.06.28 0756 UTC
Wind: from the ENE (060 degrees) at 5 MPH (4 KT):0
Visibility: 10 mile(s):0
Sky conditions: clear
Temperature: 44.1 F (6.7 C)
Dew Point: 43.0 F (6.1 C)
Relative Humidity: 95%
Pressure (altimeter): 30.18 in. Hg (1022 hPa)
ob: KMBL 280756Z AUTO 06004KT 10SM CLR 07/06 A3018 RMK AO2 SLP223 T00670061
cycle: 8

Station Type Date Time Source
KMBL TAF 2022/06/28 06:21 UTC NOAA

TAF KMBL 280520Z 2806/2906 VRB03KT P6SM SCT250
FM281500 23012G21KT P6SM SCT150 BKN250
FM281800 26011G20KT P6SM VCSH SCT050 BKN100
FM290000 VRB03KT 6SM -SHRA SCT025 OVC050

Example: see airport list